Time;durP1;ratioP1;P1;durP2;ratioP2;P2;SDS_P1;SDS_P2;PMS_P1;PMS_P2;Temp;Humidity;BMP_temperature;BMP_pressure;BME280_temperature;BME280_humidity;BME280_pressure;Samples;Min_cycle;Max_cycle;Signal;HPM_P1;HPM_P2
2021/08/15 00:01:47;;;;;;;1.42;1.00;;;;;;;23.51;54.77;101751.28;5016001;28;20029;-73
2021/08/15 00:04:13;;;;;;;2.08;1.35;;;;;;;23.52;54.47;101742.47;5016122;28;20472;-73
2021/08/15 00:06:38;;;;;;;3.38;1.40;;;;;;;23.49;54.43;101741.63;5032385;28;20088;-73
2021/08/15 00:09:04;;;;;;;2.20;1.58;;;;;;;23.53;54.55;101740.72;5032302;28;20025;-73
2021/08/15 00:11:29;;;;;;;1.50;1.13;;;;;;;23.48;54.51;101734.59;5033629;28;20487;-73
2021/08/15 00:13:55;;;;;;;1.65;1.10;;;;;;;23.49;54.51;101716.13;5033556;28;20065;-73
2021/08/15 00:16:20;;;;;;;1.95;1.48;;;;;;;23.50;54.40;101712.59;5032431;28;20540;-73
2021/08/15 00:18:46;;;;;;;2.15;1.50;;;;;;;23.48;54.69;101692.38;5032329;28;20034;-75
2021/08/15 00:21:13;;;;;;;1.75;1.45;;;;;;;23.49;54.47;101696.75;5015807;28;20021;-75
2021/08/15 00:23:38;;;;;;;1.77;1.33;;;;;;;23.52;54.58;101702.00;5015899;28;20032;-75
2021/08/15 00:26:04;;;;;;;1.80;1.38;;;;;;;23.51;54.53;101706.41;5032318;28;20375;-75
2021/08/15 00:28:29;;;;;;;1.55;1.00;;;;;;;23.51;54.64;101718.75;5033173;28;20086;-75
2021/08/15 00:30:54;;;;;;;1.05;0.95;;;;;;;23.49;54.80;101723.16;5032168;28;20030;-75
2021/08/15 00:33:20;;;;;;;2.10;1.25;;;;;;;23.49;54.68;101723.16;5033544;28;20037;-75
2021/08/15 00:35:45;;;;;;;1.90;1.25;;;;;;;23.48;54.54;101719.66;5032242;28;20026;-75
2021/08/15 00:38:11;;;;;;;1.80;1.13;;;;;;;23.47;54.55;101717.91;5015814;28;20391;-75
2021/08/15 00:40:36;;;;;;;2.38;1.27;;;;;;;23.50;54.42;101727.50;5015644;28;20026;-75
2021/08/15 00:43:01;;;;;;;2.47;1.10;;;;;;;23.47;54.37;101720.53;5015624;28;20040;-76
2021/08/15 00:45:28;;;;;;;1.83;1.13;;;;;;;23.50;54.47;101723.16;5032021;28;20364;-75
2021/08/15 00:47:53;;;;;;;1.92;1.38;;;;;;;23.49;54.49;101721.38;5032146;28;20116;-75
2021/08/15 00:50:19;;;;;;;1.70;1.23;;;;;;;23.47;54.38;101712.63;5015641;28;20543;-75
2021/08/15 00:52:45;;;;;;;2.03;1.50;;;;;;;23.49;54.54;101715.25;5031887;28;20021;-75
2021/08/15 00:55:11;;;;;;;2.33;1.30;;;;;;;23.48;54.43;101713.50;5015447;28;20033;-75
2021/08/15 00:57:41;;;;;;;1.73;1.10;;;;;;;23.45;54.22;101711.75;5015774;28;20107;-76
2021/08/15 01:00:10;;;;;;;2.47;1.35;;;;;;;23.50;54.58;101725.78;5033677;28;20029;-76
2021/08/15 01:02:40;;;;;;;1.65;1.23;;;;;;;23.49;54.54;101715.25;5039379;28;20083;-75
2021/08/15 01:05:06;;;;;;;1.98;1.52;;;;;;;23.46;54.47;101704.72;5052379;28;20093;-73
2021/08/15 01:07:31;;;;;;;2.15;1.27;;;;;;;23.46;54.54;101700.31;5033129;28;20041;-73
2021/08/15 01:09:57;;;;;;;1.65;1.17;;;;;;;23.43;54.58;101683.63;5036645;28;20117;-73
2021/08/15 01:12:27;;;;;;;1.65;1.20;;;;;;;23.45;54.57;101690.63;5033349;28;20021;-73
2021/08/15 01:14:54;;;;;;;1.38;1.00;;;;;;;23.43;54.67;101676.56;5031736;28;20087;-73
2021/08/15 01:17:20;;;;;;;1.90;1.23;;;;;;;23.44;54.72;101680.97;5015678;28;20021;-73
2021/08/15 01:19:45;;;;;;;2.15;1.60;;;;;;;23.47;54.49;101680.06;5031908;28;20423;-73
2021/08/15 01:22:11;;;;;;;1.70;1.05;;;;;;;23.46;54.54;101676.53;5032999;28;20025;-73
2021/08/15 01:24:36;;;;;;;1.45;1.10;;;;;;;23.46;54.34;101673.91;5015431;28;20045;-73
2021/08/15 01:27:03;;;;;;;1.60;1.05;;;;;;;23.47;54.48;101669.50;5031597;28;20028;-73
2021/08/15 01:29:29;;;;;;;1.60;1.17;;;;;;;23.44;54.65;101667.75;5015093;28;20057;-73
2021/08/15 01:31:56;;;;;;;1.80;1.30;;;;;;;23.47;54.37;101665.09;5032900;28;20025;-73
2021/08/15 01:34:21;;;;;;;1.42;1.00;;;;;;;23.45;54.08;101663.34;5031606;28;20033;-73
2021/08/15 01:36:47;;;;;;;2.17;1.23;;;;;;;23.43;54.52;101665.13;5031447;28;20396;-73
2021/08/15 01:39:12;;;;;;;1.58;1.17;;;;;;;23.47;54.35;101683.56;5015041;28;20029;-73
2021/08/15 01:41:37;;;;;;;1.92;1.02;;;;;;;23.46;54.43;101681.81;5036214;28;20365;-73
2021/08/15 01:44:03;;;;;;;2.08;1.30;;;;;;;23.46;54.67;101668.63;5036345;28;20026;-73
2021/08/15 01:46:31;;;;;;;1.77;0.95;;;;;;;23.43;54.67;101663.38;5036300;28;20499;-73
2021/08/15 01:48:58;;;;;;;1.52;1.08;;;;;;;23.46;54.45;101665.09;5036047;28;20044;-73
2021/08/15 01:51:23;;;;;;;1.80;1.20;;;;;;;23.43;54.59;101654.59;5036185;28;20030;-73
2021/08/15 01:53:51;;;;;;;2.03;1.55;;;;;;;23.45;54.51;101651.03;5034731;28;20132;-73
2021/08/15 01:56:17;;;;;;;1.77;1.10;;;;;;;23.45;54.70;101651.03;5034909;28;20032;-73
2021/08/15 01:58:43;;;;;;;1.17;0.88;;;;;;;23.45;54.58;101645.75;5036005;28;20033;-73
2021/08/15 02:01:10;;;;;;;2.05;1.13;;;;;;;23.45;54.27;101645.75;5036190;28;20030;-73
2021/08/15 02:03:38;;;;;;;1.88;1.30;;;;;;;23.46;54.72;101644.00;5035899;28;20034;-73
2021/08/15 02:06:04;;;;;;;1.08;0.98;;;;;;;23.39;54.47;101640.53;5036026;28;20022;-73
2021/08/15 02:08:30;;;;;;;1.63;1.08;;;;;;;23.44;54.52;101645.78;5036010;28;20032;-73
2021/08/15 02:10:55;;;;;;;1.20;0.90;;;;;;;23.42;54.40;101640.50;5001902;28;20026;-73
2021/08/15 02:13:20;;;;;;;2.13;1.20;;;;;;;23.44;54.47;101635.22;5036086;28;20112;-73
2021/08/15 02:15:46;;;;;;;1.80;1.23;;;;;;;23.44;54.57;101619.38;5034260;28;20045;-73
2021/08/15 02:18:11;;;;;;;1.85;1.17;;;;;;;23.44;54.69;101614.97;5035502;28;20068;-73
2021/08/15 02:20:37;;;;;;;2.53;1.05;;;;;;;23.42;54.40;101611.47;5035603;28;20060;-73
2021/08/15 02:23:03;;;;;;;1.77;1.00;;;;;;;23.44;54.32;101612.31;5034636;28;20112;-73
2021/08/15 02:25:28;;;;;;;1.73;1.23;;;;;;;23.45;54.34;101600.00;5035556;28;20032;-73
2021/08/15 02:27:54;;;;;;;1.27;1.15;;;;;;;23.44;54.50;101587.69;5034273;28;20049;-73
2021/08/15 02:30:22;;;;;;;2.30;1.20;;;;;;;23.45;54.58;101592.09;5035664;28;20029;-73
2021/08/15 02:32:51;;;;;;;1.23;0.90;;;;;;;23.42;54.55;101589.47;5035534;28;20483;-73
2021/08/15 02:35:17;;;;;;;2.40;1.70;;;;;;;23.44;54.69;101595.63;5035478;28;20037;-73
2021/08/15 02:37:45;;;;;;;1.58;0.82;;;;;;;23.45;54.38;101594.72;5034064;28;20037;-73
2021/08/15 02:40:13;;;;;;;1.55;1.13;;;;;;;23.44;54.47;101593.84;5035342;28;20057;-73
2021/08/15 02:42:40;;;;;;;2.03;1.20;;;;;;;23.43;54.45;101597.38;5033761;28;20021;-73
2021/08/15 02:45:08;;;;;;;1.88;1.40;;;;;;;23.41;54.67;101601.81;5033835;28;20060;-73
2021/08/15 02:47:34;;;;;;;1.40;1.15;;;;;;;23.42;54.58;101595.63;5033764;28;20030;-73
2021/08/15 02:49:59;;;;;;;2.13;1.58;;;;;;;23.42;54.49;101589.47;5017391;28;20075;-73
2021/08/15 02:52:24;;;;;;;2.03;1.17;;;;;;;23.42;54.61;101589.47;5033617;28;20385;-73
2021/08/15 02:54:50;;;;;;;1.40;0.80;;;;;;;23.42;54.64;101581.56;5034877;28;20074;-73
2021/08/15 02:57:15;;;;;;;1.30;0.90;;;;;;;23.41;54.60;101583.31;5033737;28;20029;-73
2021/08/15 02:59:40;;;;;;;1.92;1.20;;;;;;;23.42;54.55;101585.06;5017184;28;20479;-73
2021/08/15 03:02:17;;;;;;;1.45;1.00;;;;;;;23.40;54.40;101581.56;5000700;28;20488;-73
2021/08/15 03:04:44;;;;;;;1.48;1.02;;;;;;;23.38;54.48;101582.47;5034866;28;20105;-73
2021/08/15 03:07:13;;;;;;;1.20;0.90;;;;;;;23.42;54.47;101576.28;5017154;28;20032;-73
2021/08/15 03:09:38;;;;;;;2.00;1.40;;;;;;;23.42;54.53;101573.63;5034638;28;20036;-73
2021/08/15 03:12:04;;;;;;;1.60;1.10;;;;;;;23.39;54.63;101563.13;5017026;28;20518;-73
2021/08/15 03:14:30;;;;;;;1.45;1.08;;;;;;;23.41;54.54;101580.69;5034393;28;20057;-73
2021/08/15 03:16:55;;;;;;;1.23;0.95;;;;;;;23.41;54.53;101579.81;5033437;28;20112;-73
2021/08/15 03:19:21;;;;;;;1.52;0.90;;;;;;;23.37;54.55;101570.22;5033311;28;20042;-73
2021/08/15 03:21:47;;;;;;;1.58;1.13;;;;;;;23.41;54.45;101572.75;5016762;28;20126;-73
2021/08/15 03:24:12;;;;;;;1.77;1.33;;;;;;;23.39;54.58;101578.97;5034482;28;20021;-73
2021/08/15 03:26:41;;;;;;;1.45;1.00;;;;;;;23.41;54.56;101583.31;5033113;28;20028;-73
2021/08/15 03:29:07;;;;;;;1.95;1.20;;;;;;;23.38;54.74;101572.81;5033192;28;20071;-73
2021/08/15 03:31:32;;;;;;;1.17;1.08;;;;;;;23.40;54.40;101571.00;5034415;28;20033;-73
2021/08/15 03:33:58;;;;;;;2.28;1.35;;;;;;;23.39;54.70;101569.28;5034239;28;20029;-73
2021/08/15 03:36:23;;;;;;;1.42;1.02;;;;;;;23.37;54.33;101564.94;5034196;28;20472;-73
2021/08/15 03:38:48;;;;;;;1.33;0.90;;;;;;;23.39;54.64;101565.75;5032963;28;20087;-73
2021/08/15 03:41:14;;;;;;;1.73;1.27;;;;;;;23.35;54.50;101548.25;5032911;28;20484;-73
2021/08/15 03:43:39;;;;;;;2.17;0.95;;;;;;;23.35;54.51;101546.47;5016366;28;20026;-73
2021/08/15 03:46:04;;;;;;;1.58;1.00;;;;;;;23.37;54.40;101546.47;5016300;28;20376;-73
2021/08/15 03:48:30;;;;;;;1.52;0.90;;;;;;;23.39;54.75;101552.56;5032631;28;20029;-73
2021/08/15 03:50:55;;;;;;;1.30;0.90;;;;;;;23.38;54.58;101541.13;5034171;28;20029;-73
2021/08/15 03:53:20;;;;;;;2.13;1.17;;;;;;;23.38;54.51;101542.91;5016257;28;20540;-73
2021/08/15 03:55:46;;;;;;;1.20;0.82;;;;;;;23.37;54.63;101538.53;5032907;28;20102;-73
2021/08/15 03:58:11;;;;;;;1.38;1.10;;;;;;;23.39;54.35;101532.31;5032763;28;20029;-73
2021/08/15 04:00:40;;;;;;;3.35;1.33;;;;;;;23.37;54.50;101543.81;5032553;28;20025;-73
2021/08/15 04:03:09;;;;;;;1.67;1.00;;;;;;;23.38;54.51;101553.44;5033212;28;20369;-73
2021/08/15 04:05:35;;;;;;;1.35;0.95;;;;;;;23.38;54.48;101553.44;5016265;28;20033;-73
2021/08/15 04:08:00;;;;;;;1.17;0.73;;;;;;;23.34;54.37;101542.09;5033620;28;20478;-73
2021/08/15 04:10:26;;;;;;;2.33;1.40;;;;;;;23.38;54.54;101545.53;5033779;28;20021;-73
2021/08/15 04:12:51;;;;;;;1.90;1.10;;;;;;;23.35;54.56;101533.28;5033635;28;20043;-73
2021/08/15 04:15:17;;;;;;;1.83;1.20;;;;;;;23.34;54.29;101513.06;5032159;28;20049;-73
2021/08/15 04:17:42;;;;;;;2.30;1.33;;;;;;;23.36;54.62;101520.94;5015913;28;20037;-73
2021/08/15 04:20:08;;;;;;;1.67;1.23;;;;;;;23.35;54.51;101525.34;5016033;28;20025;-73
2021/08/15 04:22:34;;;;;;;2.13;1.20;;;;;;;23.38;54.50;101529.69;5015991;28;20037;-73
2021/08/15 04:24:59;;;;;;;1.60;0.95;;;;;;;23.38;54.64;101532.34;5032322;28;20029;-73
2021/08/15 04:27:24;;;;;;;2.67;1.15;;;;;;;23.38;54.46;101527.06;5015805;28;20025;-73
2021/08/15 04:29:50;;;;;;;1.52;1.05;;;;;;;23.37;54.61;101520.91;5032156;28;20025;-73
2021/08/15 04:32:15;;;;;;;1.42;1.10;;;;;;;23.31;54.54;101506.94;5015877;28;20124;-73
2021/08/15 04:34:41;;;;;;;2.55;1.15;;;;;;;23.35;54.77;101514.81;5015773;28;20026;-73
2021/08/15 04:37:08;;;;;;;1.60;0.90;;;;;;;23.36;54.69;101508.63;5032338;28;20033;-73
2021/08/15 04:39:34;;;;;;;1.73;1.13;;;;;;;23.35;54.47;101521.84;5016258;28;20479;-73
2021/08/15 04:41:59;;;;;;;2.42;1.23;;;;;;;23.37;54.51;101525.34;5032352;28;20037;-73
2021/08/15 04:44:24;;;;;;;1.60;1.02;;;;;;;23.33;54.52;101507.78;5033418;28;20025;-73
2021/08/15 04:46:50;;;;;;;1.70;1.10;;;;;;;23.36;54.65;101518.31;4999344;28;20025;-73
2021/08/15 04:49:15;;;;;;;1.17;0.93;;;;;;;23.36;54.45;101519.19;5032025;28;20064;-73
2021/08/15 04:51:40;;;;;;;1.50;1.00;;;;;;;23.35;54.46;101508.66;5015637;28;20064;-73
2021/08/15 04:54:06;;;;;;;1.60;1.20;;;;;;;23.35;54.41;101506.00;5032202;28;20047;-73
2021/08/15 04:56:31;;;;;;;1.30;0.80;;;;;;;23.33;54.55;101500.75;5032279;28;20130;-73
2021/08/15 04:58:56;;;;;;;1.42;1.30;;;;;;;23.36;54.49;101506.00;5033268;28;20036;-73
2021/08/15 05:01:22;;;;;;;1.48;1.23;;;;;;;23.35;54.69;101501.59;5033249;28;20033;-73
2021/08/15 05:03:49;;;;;;;1.83;0.90;;;;;;;23.36;54.42;101508.63;5033346;28;20033;-73
2021/08/15 05:06:15;;;;;;;2.45;0.90;;;;;;;23.37;54.45;101506.88;5033349;28;20033;-73
2021/08/15 05:08:40;;;;;;;3.03;1.70;;;;;;;23.37;54.55;101502.44;5031750;28;20196;-73
2021/08/15 05:11:06;;;;;;;2.00;1.17;;;;;;;23.37;54.46;101505.06;5033044;28;20436;-73
2021/08/15 05:13:31;;;;;;;1.58;1.45;;;;;;;23.36;54.64;101506.00;5015636;28;20419;-75
2021/08/15 05:15:57;;;;;;;1.33;1.00;;;;;;;23.34;54.54;101502.50;5019066;28;20492;-75
2021/08/15 05:18:22;;;;;;;1.77;1.20;;;;;;;23.35;54.53;101495.44;5036926;28;20464;-75
2021/08/15 05:20:47;;;;;;;1.30;0.95;;;;;;;23.39;54.39;101497.13;5036873;28;20048;-75
2021/08/15 05:23:13;;;;;;;1.63;1.08;;;;;;;23.40;54.31;101505.03;5036559;28;20029;-75
2021/08/15 05:25:39;;;;;;;4.10;1.25;;;;;;;23.41;54.52;101505.91;5036847;28;20025;-75
2021/08/15 05:28:05;;;;;;;1.58;1.17;;;;;;;23.41;54.54;101500.63;5035268;28;20116;-73
2021/08/15 05:30:31;;;;;;;1.23;1.00;;;;;;;23.38;54.32;101498.03;5036613;28;20491;-73
2021/08/15 05:32:56;;;;;;;1.80;1.05;;;;;;;23.35;54.32;101492.81;5035335;28;20373;-73
2021/08/15 05:35:22;;;;;;;1.85;1.10;;;;;;;23.39;54.33;101492.72;5035205;28;20079;-73
2021/08/15 05:37:47;;;;;;;2.00;1.13;;;;;;;23.38;54.51;101492.75;5036484;28;20396;-73
2021/08/15 05:40:13;;;;;;;1.02;0.80;;;;;;;23.36;54.47;101491.91;5035499;28;20440;-73
2021/08/15 05:42:39;;;;;;;1.60;1.15;;;;;;;23.40;54.68;101491.84;5036344;28;20056;-73
2021/08/15 05:45:05;;;;;;;2.38;1.42;;;;;;;23.36;54.47;101484.88;5018580;28;20021;-73
2021/08/15 05:47:30;;;;;;;1.85;1.30;;;;;;;23.39;54.64;101484.81;5034947;28;20087;-73
2021/08/15 05:49:55;;;;;;;1.65;1.10;;;;;;;23.39;54.43;101486.56;5036439;28;20428;-73
2021/08/15 05:52:21;;;;;;;2.13;1.85;;;;;;;23.41;54.48;101485.66;5035006;28;20472;-73
2021/08/15 05:54:46;;;;;;;1.27;0.90;;;;;;;23.43;54.40;101480.34;5036107;28;20492;-74
2021/08/15 05:57:11;;;;;;;2.08;1.17;;;;;;;23.44;54.51;101493.53;5018350;28;20483;-73
2021/08/15 05:59:37;;;;;;;1.70;0.90;;;;;;;23.46;54.48;101491.75;5035132;28;20387;-73
2021/08/15 06:02:03;;;;;;;1.92;1.20;;;;;;;23.47;54.44;101488.22;5034862;28;20036;-73
2021/08/15 06:04:29;;;;;;;1.10;0.88;;;;;;;23.54;54.22;101496.94;5035900;28;20040;-73
2021/08/15 06:06:54;;;;;;;1.45;1.17;;;;;;;23.58;54.43;101495.13;5018222;28;20033;-73
2021/08/15 06:09:19;;;;;;;1.60;0.93;;;;;;;23.62;53.92;101488.91;5035974;28;20030;-73
2021/08/15 06:11:46;;;;;;;2.08;1.00;;;;;;;23.66;53.99;101486.19;5035898;28;20022;-73
2021/08/15 06:14:13;;;;;;;2.45;1.52;;;;;;;23.73;53.79;101482.56;5034771;28;20033;-73
2021/08/15 06:16:39;;;;;;;1.85;1.23;;;;;;;23.75;53.81;101485.19;5035599;28;20111;-74
2021/08/15 06:19:04;;;;;;;2.05;1.45;;;;;;;23.75;53.43;101477.25;5034582;28;20476;-73
2021/08/15 06:21:29;;;;;;;1.30;0.93;;;;;;;23.79;53.59;101473.63;5035777;28;20065;-73
2021/08/15 06:23:55;;;;;;;1.13;1.00;;;;;;;23.82;53.79;101473.59;5034714;28;20025;-74
2021/08/15 06:26:20;;;;;;;2.08;1.08;;;;;;;23.86;53.50;101475.28;5003272;28;20535;-74
2021/08/15 06:28:46;;;;;;;1.95;1.02;;;;;;;23.82;53.72;101476.25;5046414;28;20025;-74
2021/08/15 06:31:11;;;;;;;2.55;1.08;;;;;;;23.75;54.03;101477.25;5021280;28;20132;-73
2021/08/15 06:33:36;;;;;;;1.65;1.05;;;;;;;23.73;54.01;101473.75;5018032;28;20120;-73
2021/08/15 06:36:02;;;;;;;2.17;1.23;;;;;;;23.72;54.22;101472.88;5034477;28;20041;-73
2021/08/15 06:38:27;;;;;;;1.48;0.85;;;;;;;23.71;54.28;101476.41;5034125;28;20056;-73
2021/08/15 06:40:53;;;;;;;1.83;1.30;;;;;;;23.66;54.48;101472.97;5035274;28;20357;-73
2021/08/15 06:43:19;;;;;;;1.67;1.13;;;;;;;23.65;54.37;101476.50;5017731;28;20029;-73
2021/08/15 06:45:45;;;;;;;1.30;1.00;;;;;;;23.67;54.14;101468.56;5034036;28;20025;-74
2021/08/15 06:48:10;;;;;;;1.80;1.00;;;;;;;23.79;53.97;101477.16;5034032;28;20041;-74
2021/08/15 06:50:36;;;;;;;1.77;1.35;;;;;;;23.85;53.71;101474.41;5033992;28;20046;-73
2021/08/15 06:53:02;;;;;;;1.50;0.90;;;;;;;23.86;53.69;101476.16;5033971;28;20072;-73
2021/08/15 06:55:29;;;;;;;1.77;1.00;;;;;;;23.96;53.62;101476.88;5034987;28;20065;-73
2021/08/15 06:57:54;;;;;;;3.80;1.48;;;;;;;23.97;53.58;101465.41;5033735;28;20037;-73
2021/08/15 07:00:20;;;;;;;2.05;1.13;;;;;;;23.97;53.50;101459.25;5033725;28;20498;-73
2021/08/15 07:02:48;;;;;;;1.52;1.00;;;;;;;24.00;53.42;101470.66;5017648;28;20391;-73
2021/08/15 07:05:16;;;;;;;1.50;0.95;;;;;;;24.04;53.39;101474.06;5034444;28;20482;-73
2021/08/15 07:07:41;;;;;;;1.65;1.10;;;;;;;23.99;53.80;101473.31;5035735;28;20064;-73
2021/08/15 07:10:08;;;;;;;1.40;1.10;;;;;;;23.89;53.88;101469.94;5034221;28;20061;-73
2021/08/15 07:12:34;;;;;;;1.52;0.93;;;;;;;23.92;53.83;101475.16;5035278;28;20051;-73
2021/08/15 07:14:59;;;;;;;1.23;0.90;;;;;;;24.01;53.63;101474.16;5035202;28;20093;-74
2021/08/15 07:17:28;;;;;;;2.25;1.10;;;;;;;24.04;53.68;101474.06;5035266;28;20395;-73
2021/08/15 07:19:54;;;;;;;2.20;1.25;;;;;;;24.11;53.70;101478.38;5017822;28;20036;-74
2021/08/15 07:22:19;;;;;;;2.15;0.93;;;;;;;24.11;53.54;101471.31;5035283;28;20473;-73
2021/08/15 07:24:44;;;;;;;2.25;1.08;;;;;;;24.12;53.47;101473.06;5033719;28;20095;-73
2021/08/15 07:27:10;;;;;;;1.80;1.15;;;;;;;24.08;53.55;101468.72;5033407;28;20141;-74
2021/08/15 07:29:35;;;;;;;2.30;1.10;;;;;;;24.07;53.91;101474.91;5034149;28;20029;-73
2021/08/15 07:32:03;;;;;;;2.22;1.35;;;;;;;24.03;53.89;101474.97;5033781;28;20033;-73
2021/08/15 07:34:29;;;;;;;2.03;1.52;;;;;;;23.98;53.86;101469.78;5034071;28;20116;-73
2021/08/15 07:36:54;;;;;;;1.75;1.15;;;;;;;23.96;53.79;101463.66;5016700;28;20124;-74
2021/08/15 07:39:19;;;;;;;2.28;1.45;;;;;;;24.06;53.93;101477.56;5033326;28;20037;-74
2021/08/15 07:41:45;;;;;;;1.45;0.95;;;;;;;24.06;54.01;101474.94;5033935;28;20030;-73
2021/08/15 07:44:10;;;;;;;1.40;0.88;;;;;;;24.04;53.70;101476.72;5034754;28;20518;-73
2021/08/15 07:46:35;;;;;;;2.13;1.50;;;;;;;24.06;54.05;101478.44;5033643;28;20037;-74
2021/08/15 07:49:01;;;;;;;2.03;1.40;;;;;;;24.07;53.64;101476.66;5016407;28;20029;-73
2021/08/15 07:51:30;;;;;;;2.33;1.17;;;;;;;24.08;53.78;101476.66;5032952;28;20152;-73
2021/08/15 07:53:56;;;;;;;2.00;1.42;;;;;;;24.08;53.74;101470.50;5016603;28;20030;-73
2021/08/15 07:56:21;;;;;;;4.50;1.52;;;;;;;24.14;53.84;101473.91;5034060;28;20391;-73
2021/08/15 07:58:47;;;;;;;1.90;1.23;;;;;;;24.18;53.46;101475.56;5034346;28;20031;-72
2021/08/15 08:01:12;;;;;;;1.58;1.15;;;;;;;24.23;53.44;101472.00;5033293;28;20489;-72
2021/08/15 08:03:40;;;;;;;1.85;1.48;;;;;;;24.24;53.53;101465.84;5033594;28;20039;-73
2021/08/15 08:06:06;;;;;;;2.08;1.30;;;;;;;24.22;53.76;101463.19;5017155;28;20395;-73
2021/08/15 08:08:31;;;;;;;2.13;1.17;;;;;;;24.25;53.62;101449.94;5016666;28;20029;-73
2021/08/15 08:10:57;;;;;;;2.10;1.33;;;;;;;24.25;53.63;101452.59;5033170;28;20467;-73
2021/08/15 08:13:23;;;;;;;1.90;1.30;;;;;;;24.30;53.51;101456.00;5033203;28;20033;-73
2021/08/15 08:15:49;;;;;;;1.42;1.00;;;;;;;24.31;53.21;101456.88;5032977;28;20076;-73
2021/08/15 08:18:14;;;;;;;1.58;1.10;;;;;;;24.34;53.53;101452.41;5016727;28;20036;-73
2021/08/15 08:20:40;;;;;;;4.30;2.45;;;;;;;24.36;53.50;101460.31;5033477;28;20029;-73
2021/08/15 08:23:08;;;;;;;2.53;1.63;;;;;;;24.34;53.44;101456.81;5033554;28;20056;-74
2021/08/15 08:25:34;;;;;;;1.83;1.30;;;;;;;24.30;53.67;101450.72;5033670;28;20071;-73
2021/08/15 08:28:00;;;;;;;1.50;1.05;;;;;;;24.34;53.36;101452.41;5016647;28;20030;-73
2021/08/15 08:30:26;;;;;;;1.83;1.38;;;;;;;24.33;53.60;101450.66;5032847;28;20025;-73
2021/08/15 08:32:51;;;;;;;2.00;1.58;;;;;;;24.34;53.46;101451.53;5034023;28;20045;-73
2021/08/15 08:35:17;;;;;;;1.70;1.00;;;;;;;24.29;53.61;101438.41;5034142;28;20076;-73
2021/08/15 08:37:46;;;;;;;2.08;1.30;;;;;;;24.31;53.80;101447.16;5032384;28;20159;-73
2021/08/15 08:40:13;;;;;;;1.40;1.10;;;;;;;24.33;53.35;101445.38;5033513;28;20029;-73
2021/08/15 08:42:38;;;;;;;3.25;1.45;;;;;;;24.34;53.55;101448.88;5033572;28;20037;-73
2021/08/15 08:45:05;;;;;;;1.85;1.30;;;;;;;24.31;53.52;101444.53;5033399;28;20030;-73
2021/08/15 08:47:31;;;;;;;2.20;1.67;;;;;;;24.31;53.45;101438.38;5033097;28;20033;-73
2021/08/15 08:49:59;;;;;;;1.65;1.42;;;;;;;24.29;53.46;101433.09;5035809;28;20471;-73
2021/08/15 08:52:29;;;;;;;3.20;1.58;;;;;;;24.30;53.54;101436.63;5036839;28;20034;-73
2021/08/15 08:54:59;;;;;;;2.78;1.50;;;;;;;24.31;53.64;101436.59;5038045;28;20021;-73
2021/08/15 08:57:25;;;;;;;2.15;1.30;;;;;;;24.29;53.41;101435.75;5020210;28;20075;-73
2021/08/15 08:59:51;;;;;;;2.03;1.35;;;;;;;24.32;53.62;101433.06;5036913;28;20029;-73
2021/08/15 09:02:19;;;;;;;2.65;1.27;;;;;;;24.30;53.65;101432.22;5036888;28;20040;-73
2021/08/15 09:04:44;;;;;;;2.20;1.48;;;;;;;24.30;53.56;101433.97;5020465;28;20022;-73
2021/08/15 09:07:18;;;;;;;2.30;1.23;;;;;;;24.26;53.77;101427.03;5038138;28;20439;-73
2021/08/15 09:09:58;;;;;;;2.80;1.63;;;;;;;24.30;53.71;101431.34;5037861;28;20029;-73
2021/08/15 09:12:45;;;;;;;2.13;1.30;;;;;;;24.28;53.55;101430.53;5019894;28;20084;-73
2021/08/15 09:15:20;;;;;;;2.58;1.10;;;;;;;24.27;53.86;101431.41;5036134;28;20037;-75
2021/08/15 09:17:52;;;;;;;5.03;2.83;;;;;;;24.24;53.70;101428.84;5036412;28;20033;-77
2021/08/15 09:20:23;;;;;;;4.78;2.78;;;;;;;24.14;53.49;101421.06;5035720;28;20026;-73
2021/08/15 09:22:49;;;;;;;5.93;3.35;;;;;;;24.07;53.69;101431.75;5036642;28;20083;-73
2021/08/15 09:25:21;;;;;;;8.45;3.10;;;;;;;24.10;53.52;101426.41;5035406;28;20365;-73
2021/08/15 09:27:54;;;;;;;4.60;2.97;;;;;;;24.15;53.71;101424.53;5036622;28;20432;-73
2021/08/15 09:30:23;;;;;;;4.22;2.72;;;;;;;24.15;53.13;101419.25;5035415;28;20386;-74
2021/08/15 09:33:02;;;;;;;5.78;3.25;;;;;;;24.17;53.37;101414.81;5019047;28;20110;-74
2021/08/15 09:35:31;;;;;;;5.20;2.75;;;;;;;24.19;53.60;101424.47;5035239;28;20099;-74
2021/08/15 09:38:00;;;;;;;5.55;3.03;;;;;;;24.16;53.71;101415.72;5035210;28;20178;-75
2021/08/15 09:40:35;;;;;;;5.25;3.53;;;;;;;24.19;53.52;101420.94;5035173;28;20052;-75
2021/08/15 09:43:02;;;;;;;4.72;2.50;;;;;;;24.18;53.77;101417.44;5036467;28;20029;-75
2021/08/15 09:45:37;;;;;;;5.70;3.25;;;;;;;24.16;53.50;101418.34;5035117;28;20064;-75
2021/08/15 09:48:32;;;;;;;5.07;2.72;;;;;;;24.19;53.72;101420.94;5036197;28;20059;-75
2021/08/15 09:51:17;;;;;;;5.25;3.08;;;;;;;24.19;53.49;101418.31;5036254;28;20091;-74
2021/08/15 09:54:00;;;;;;;6.82;2.70;;;;;;;24.20;53.77;101422.69;5035028;28;20029;-75
2021/08/15 09:56:54;;;;;;;5.95;2.78;;;;;;;24.19;53.34;101418.31;5035031;28;20021;-75
2021/08/15 09:59:22;;;;;;;5.43;2.95;;;;;;;24.19;53.68;101420.94;5033554;28;20095;-75
2021/08/15 10:01:50;;;;;;;3.92;2.80;;;;;;;24.17;53.48;101414.81;5035173;28;20029;-74
2021/08/15 10:04:17;;;;;;;3.35;2.55;;;;;;;24.14;53.76;101409.63;5038314;28;20032;-75
2021/08/15 10:06:45;;;;;;;4.25;2.60;;;;;;;24.15;53.95;101421.91;5038489;28;20427;-75
2021/08/15 10:09:11;;;;;;;4.40;2.30;;;;;;;24.11;53.95;101415.81;5048061;28;20025;-73
2021/08/15 10:11:38;;;;;;;6.22;2.40;;;;;;;24.15;53.88;101422.75;5039740;28;20059;-73
2021/08/15 10:14:09;;;;;;;4.13;2.30;;;;;;;24.17;53.88;101417.47;5036659;28;20108;-75
2021/08/15 10:16:37;;;;;;;5.32;2.67;;;;;;;24.16;53.64;101418.34;5036250;28;20095;-75
2021/08/15 10:19:07;;;;;;;5.60;2.58;;;;;;;24.15;54.00;101414.84;5034585;28;20033;-75
2021/08/15 10:21:39;;;;;;;2.97;2.00;;;;;;;24.14;53.70;101409.63;5034466;28;20029;-75
2021/08/15 10:24:10;;;;;;;3.97;2.90;;;;;;;24.14;53.78;101399.91;5035712;28;20036;-75
2021/08/15 10:26:35;;;;;;;4.43;2.83;;;;;;;24.14;53.69;101391.13;5035548;28;20037;-75
2021/08/15 10:29:01;;;;;;;3.35;2.25;;;;;;;24.13;53.69;101392.00;5035655;28;20375;-73
2021/08/15 10:32:04;;;;;;;6.22;2.75;;;;;;;24.12;54.04;101391.16;5035674;28;20114;-73
2021/08/15 10:34:49;;;;;;;3.13;1.90;;;;;;;24.12;53.90;101371.78;5033969;28;20124;-73
2021/08/15 10:37:27;;;;;;;3.92;2.60;;;;;;;24.12;53.48;101380.56;5035435;28;20071;-74
2021/08/15 10:40:04;;;;;;;6.33;2.67;;;;;;;24.09;53.92;101371.81;5035526;28;20408;-73
2021/08/15 10:42:39;;;;;;;5.93;2.97;;;;;;;24.12;53.97;101372.66;5034094;28;20041;-73
2021/08/15 10:45:22;;;;;;;4.43;2.53;;;;;;;24.12;53.84;101379.69;5035238;28;20025;-73
2021/08/15 10:48:08;;;;;;;5.22;2.50;;;;;;;24.11;53.74;101362.09;5034159;28;20029;-73
2021/08/15 10:50:40;;;;;;;3.38;2.30;;;;;;;24.11;53.71;101367.38;5033742;28;20064;-74
2021/08/15 10:55:54;;;;;;;3.45;1.80;;;;;;;24.10;53.68;101363.00;5035165;28;20026;-75
2021/08/15 10:58:44;;;;;;;4.05;2.15;;;;;;;24.08;53.62;101355.09;5017606;28;20535;-75
2021/08/15 11:01:14;;;;;;;2.80;1.80;;;;;;;24.10;53.97;101355.94;5034884;28;20021;-75
2021/08/15 11:03:49;;;;;;;3.83;1.73;;;;;;;24.10;53.96;101360.34;5033596;28;20071;-75
2021/08/15 11:06:29;;;;;;;4.75;1.88;;;;;;;24.09;53.92;101356.84;5033605;28;20091;-75
2021/08/15 11:08:56;;;;;;;2.40;1.70;;;;;;;24.06;53.85;101354.25;5034928;28;20025;-75
2021/08/15 11:11:25;;;;;;;3.13;2.03;;;;;;;24.10;53.65;101360.34;5033283;28;20080;-75
2021/08/15 11:14:18;;;;;;;2.95;1.95;;;;;;;24.10;53.81;101363.00;5034958;28;20022;-75
2021/08/15 11:16:46;;;;;;;3.00;2.05;;;;;;;24.10;54.10;101360.34;5033269;28;20500;-75
2021/08/15 11:19:12;;;;;;;3.15;1.80;;;;;;;24.10;53.87;101352.44;5034527;28;20073;-75
2021/08/15 11:22:06;;;;;;;3.42;2.20;;;;;;;24.10;53.84;101363.00;5033380;28;20080;-75
2021/08/15 11:24:32;;;;;;;;;;;;;;;24.11;53.89;101343.59;5033704;28;20025;-75
2021/08/15 11:26:58;;;;;;;4.28;2.63;;;;;;;24.09;53.72;101345.41;5034437;28;19909;-75
2021/08/15 11:29:25;;;;;;;3.70;1.48;;;;;;;24.07;53.74;101342.78;5034394;28;20111;-75